createdAt,value
2023-04-12T00:00:03.103Z,100
2023-04-12T00:05:02.988Z,100
2023-04-12T00:10:03.489Z,100
2023-04-12T00:15:03.385Z,100
2023-04-12T00:20:03.482Z,100
2023-04-12T00:25:03.115Z,100
2023-04-12T00:30:03.382Z,100
2023-04-12T00:35:02.831Z,100
2023-04-12T00:40:02.615Z,100
2023-04-12T00:45:03.595Z,100
2023-04-12T00:50:03.511Z,100
2023-04-12T00:55:03.703Z,100
2023-04-12T01:00:03.094Z,100
2023-04-12T01:05:02.794Z,100
2023-04-12T01:10:02.752Z,100
2023-04-12T01:15:03.055Z,100
2023-04-12T01:20:06.250Z,100
2023-04-12T01:25:03.545Z,100
2023-04-12T01:30:03.173Z,100
2023-04-12T01:35:02.880Z,100
2023-04-12T01:40:03.779Z,100
2023-04-12T01:45:03.326Z,100
2023-04-12T01:50:03.044Z,100
2023-04-12T01:55:03.118Z,100
2023-04-12T02:00:02.933Z,100
2023-04-12T02:05:02.824Z,100
2023-04-12T02:10:02.602Z,100
2023-04-12T02:15:03.583Z,100
2023-04-12T02:20:03.752Z,100
2023-04-12T02:25:03.212Z,100
2023-04-12T02:30:03.089Z,100
2023-04-12T02:35:02.708Z,100
2023-04-12T02:40:03.103Z,100
2023-04-12T02:45:02.805Z,100
2023-04-12T02:50:02.663Z,100
2023-04-12T02:55:03.899Z,100
2023-04-12T03:00:03.194Z,100
2023-04-12T03:05:02.943Z,100
2023-04-12T03:10:03.016Z,100
2023-04-12T03:15:02.847Z,100
2023-04-12T03:20:03.536Z,100
2023-04-12T03:25:03.396Z,100
2023-04-12T03:30:03.151Z,100
2023-04-12T03:35:02.476Z,100
2023-04-12T03:40:02.668Z,100
2023-04-12T03:45:03.527Z,100
2023-04-12T03:55:03.362Z,100
2023-04-12T04:00:03.052Z,100
2023-04-12T04:05:02.977Z,100
2023-04-12T04:10:02.670Z,100
2023-04-12T04:15:03.515Z,100
2023-04-12T04:20:03.160Z,100
2023-04-12T04:25:03.351Z,100
2023-04-12T04:30:03.151Z,100
2023-04-12T04:35:02.709Z,100
2023-04-12T04:40:03.433Z,100
2023-04-12T04:45:03.209Z,100
2023-04-12T04:50:03.191Z,100
2023-04-12T04:55:11.751Z,100
2023-04-12T05:00:02.701Z,100
2023-04-12T05:05:02.773Z,100
2023-04-12T05:10:03.464Z,100
2023-04-12T05:20:02.969Z,94.76
2023-04-12T05:25:02.694Z,91.4
2023-04-12T05:30:03.608Z,91.84
2023-04-12T05:35:03.572Z,91.15
2023-04-12T05:40:03.135Z,86.34
2023-04-12T05:45:03.118Z,86.11
2023-04-12T05:50:07.041Z,86.53
2023-04-12T05:55:03.118Z,81.81
2023-04-12T06:00:02.875Z,80.56
2023-04-12T06:05:03.904Z,79.89
2023-04-12T06:10:03.449Z,79.33
2023-04-12T06:15:03.327Z,78.46
2023-04-12T06:20:03.031Z,76.7
2023-04-12T06:25:03.081Z,76.15
2023-04-12T06:30:02.797Z,75.08
2023-04-12T06:35:02.626Z,74.02
2023-04-12T06:40:03.346Z,74.69
2023-04-12T06:45:03.050Z,74.03
2023-04-12T06:50:03.342Z,72.48
2023-04-12T06:55:03.390Z,72.12
2023-04-12T07:00:03.623Z,72.22
2023-04-12T07:05:03.268Z,68.67
2023-04-12T07:10:03.003Z,67.15
2023-04-12T07:15:02.792Z,63.95
2023-04-12T07:20:03.615Z,64.24
2023-04-12T07:25:02.860Z,62.34
2023-04-12T07:30:03.540Z,61.27
2023-04-12T07:35:03.548Z,62.19
2023-04-12T07:40:03.283Z,59.82
2023-04-12T07:45:02.804Z,60.39
2023-04-12T07:50:02.611Z,57.65
2023-04-12T07:55:03.886Z,58.04
2023-04-12T08:00:03.050Z,56.4
2023-04-12T08:05:02.892Z,58.8
2023-04-12T08:10:03.053Z,56.11
2023-04-12T08:15:02.735Z,57
2023-04-12T08:20:02.384Z,54.82
2023-04-12T08:25:03.555Z,57.09
2023-04-12T08:30:03.309Z,57.27
2023-04-12T08:35:03.012Z,55.39
2023-04-12T08:40:02.788Z,57.48
2023-04-12T08:45:03.581Z,56.32
2023-04-12T08:50:03.370Z,55.14
2023-04-12T08:55:03.443Z,56.22
2023-04-12T09:00:03.544Z,53.89
2023-04-12T09:05:03.812Z,54.52
2023-04-12T09:10:03.088Z,53.08
2023-04-12T09:15:03.011Z,53.25
2023-04-12T09:20:02.719Z,54.83
2023-04-12T09:25:02.747Z,52.99
2023-04-12T09:30:03.499Z,54.57
2023-04-12T09:35:03.213Z,53.09
2023-04-12T09:40:03.349Z,54.68
2023-04-12T09:45:03.335Z,52.66
2023-04-12T09:50:02.807Z,52.81
2023-04-12T09:55:04.349Z,55.32
2023-04-12T10:00:03.229Z,53.39
2023-04-12T10:05:03.587Z,55.47
2023-04-12T10:10:02.740Z,55.73
2023-04-12T10:15:03.553Z,54.55
2023-04-12T10:20:03.609Z,57.06
2023-04-12T10:25:03.643Z,51.45
2023-04-12T10:30:03.342Z,53.86
2023-04-12T10:35:03.026Z,50.94
2023-04-12T10:40:02.560Z,51.65
2023-04-12T10:45:02.845Z,49.97
2023-04-12T10:50:03.801Z,51.96
2023-04-12T10:55:03.488Z,49.27
2023-04-12T11:00:03.363Z,47.3
2023-04-12T11:05:03.388Z,46.91
2023-04-12T11:10:02.838Z,47.25
2023-04-12T11:15:02.912Z,47.39
2023-04-12T11:20:03.439Z,45.42
2023-04-12T11:25:03.268Z,48.51
2023-04-12T11:30:02.960Z,47.76
2023-04-12T11:35:02.740Z,47.74
2023-04-12T11:40:03.512Z,48.73
2023-04-12T11:45:18.536Z,50.45
2023-04-12T11:50:03.574Z,48.55
2023-04-12T11:55:03.704Z,46.34
2023-04-12T12:00:03.433Z,47.89
2023-04-12T12:05:04.278Z,47.93
2023-04-12T12:10:02.960Z,45.98
2023-04-12T12:15:02.749Z,47.04
2023-04-12T12:20:02.730Z,47.75
2023-04-12T12:25:03.482Z,46.75
2023-04-12T12:30:03.345Z,47.07
2023-04-12T12:35:03.013Z,47.2
2023-04-12T12:40:02.736Z,49.54
2023-04-12T12:45:03.603Z,51.92
2023-04-12T12:50:03.365Z,51.99
2023-04-12T12:55:03.129Z,54.4
2023-04-12T13:00:02.821Z,55.35
2023-04-12T13:05:02.245Z,55.35
2023-04-12T13:10:03.502Z,58.5
2023-04-12T13:15:24.903Z,63.21
2023-04-12T13:20:02.955Z,59.84
2023-04-12T13:25:02.691Z,61.71
2023-04-12T13:30:03.464Z,59.92
2023-04-12T13:35:03.591Z,62.43
2023-04-12T13:40:03.357Z,64.46
2023-04-12T13:45:03.241Z,63.87
2023-04-12T13:50:02.936Z,66.3
2023-04-12T13:55:03.018Z,67.55
2023-04-12T14:00:02.867Z,69.43
2023-04-12T14:05:03.872Z,70.61
2023-04-12T14:10:03.483Z,72.92
2023-04-12T14:15:03.186Z,75.79
2023-04-12T14:20:03.010Z,84.41
2023-04-12T14:25:02.830Z,89.62
2023-04-12T14:30:03.673Z,91.65
2023-04-12T14:35:03.206Z,93.53
2023-04-12T14:40:03.212Z,95.19
2023-04-12T14:45:03.083Z,95.86
2023-04-12T14:50:02.841Z,97.15
2023-04-12T14:55:03.799Z,97.89
2023-04-12T15:00:02.788Z,99.46
2023-04-12T15:05:03.362Z,98.42
2023-04-12T15:10:03.319Z,100
2023-04-12T15:15:06.781Z,100
2023-04-12T15:20:02.749Z,98.74
2023-04-12T15:25:03.506Z,97.55
2023-04-12T15:30:03.516Z,99.37
2023-04-12T15:35:25.731Z,99.48
2023-04-12T15:40:03.161Z,100
2023-04-12T15:45:03.006Z,100
2023-04-12T15:50:02.789Z,99.2
2023-04-12T15:55:04.203Z,99.34
2023-04-12T16:00:03.542Z,96.71
2023-04-12T16:05:03.617Z,97.76
2023-04-12T16:10:02.909Z,97.77
2023-04-12T16:15:02.288Z,96.85
2023-04-12T16:20:03.567Z,96.25
2023-04-12T16:25:03.187Z,95.55
2023-04-12T16:30:03.418Z,96.79
2023-04-12T16:35:03.144Z,97.81
2023-04-12T16:40:03.175Z,98.32
2023-04-12T16:45:03.574Z,98.19
2023-04-12T16:50:03.323Z,99.04
2023-04-12T16:55:03.774Z,99.65
2023-04-12T17:00:02.902Z,99.79
2023-04-12T17:05:02.227Z,100
2023-04-12T17:10:03.370Z,100
2023-04-12T17:15:03.215Z,100
2023-04-12T17:20:03.368Z,100
2023-04-12T17:25:03.129Z,100
2023-04-12T17:30:03.509Z,100
2023-04-12T17:55:02.991Z,100
2023-04-12T18:00:03.566Z,100
2023-04-12T18:05:03.775Z,100
2023-04-12T18:10:03.786Z,100
2023-04-12T18:15:03.601Z,100
2023-04-12T18:20:03.817Z,100
2023-04-12T18:25:03.139Z,100
2023-04-12T18:30:03.000Z,100
2023-04-12T18:35:02.903Z,100
2023-04-12T18:40:02.595Z,100
2023-04-12T18:45:02.675Z,100
2023-04-12T18:50:03.444Z,100
2023-04-12T18:55:03.427Z,100
2023-04-12T19:00:03.237Z,100
2023-04-12T19:05:03.584Z,100
2023-04-12T19:10:02.663Z,100
2023-04-12T19:15:03.546Z,100
2023-04-12T19:20:03.384Z,100
2023-04-12T19:25:03.088Z,100
2023-04-12T19:30:03.240Z,100
2023-04-12T19:35:02.935Z,100
2023-04-12T19:40:03.578Z,100
2023-04-12T19:45:02.239Z,100
2023-04-12T19:50:03.482Z,100
2023-04-12T19:55:03.618Z,100
2023-04-12T20:00:03.095Z,100
2023-04-12T20:10:03.738Z,100
2023-04-12T20:15:03.499Z,100
2023-04-12T20:20:02.676Z,100
2023-04-12T20:25:02.828Z,100
2023-04-12T20:30:03.172Z,100
2023-04-12T20:35:02.790Z,100
2023-04-12T20:40:02.756Z,100
2023-04-12T20:45:03.490Z,100
2023-04-12T20:50:03.119Z,100
2023-04-12T20:55:03.687Z,100
2023-04-12T21:00:03.590Z,100
2023-04-12T21:05:02.647Z,100
2023-04-12T21:10:03.684Z,100
2023-04-12T21:15:03.171Z,100
2023-04-12T21:20:02.909Z,100
2023-04-12T21:25:03.074Z,100
2023-04-12T21:30:02.987Z,100
2023-04-12T21:40:03.234Z,100
2023-04-12T21:45:02.935Z,100
2023-04-12T21:50:02.945Z,100
2023-04-12T21:55:03.382Z,100
2023-04-12T22:00:03.225Z,100
2023-04-12T22:05:03.067Z,100
2023-04-12T22:10:02.781Z,100
2023-04-12T22:15:02.788Z,100
2023-04-12T22:20:03.444Z,100
2023-04-12T22:25:03.403Z,100
2023-04-12T22:30:03.246Z,100
2023-04-12T22:40:02.698Z,100
2023-04-12T22:45:02.726Z,100
2023-04-12T22:50:03.535Z,100
2023-04-12T22:55:04.418Z,100
2023-04-12T23:00:03.506Z,100
2023-04-12T23:05:03.482Z,100
2023-04-12T23:10:02.964Z,100
2023-04-12T23:15:02.785Z,100
2023-04-12T23:20:02.741Z,100
2023-04-12T23:25:02.885Z,100
2023-04-12T23:30:03.677Z,100
2023-04-12T23:35:03.400Z,100
2023-04-12T23:40:03.138Z,100
2023-04-12T23:45:03.262Z,100
2023-04-12T23:50:02.835Z,100
2023-04-12T23:55:03.227Z,100
